• Join FlightAware (Why Join?)
  • Login
  • US Flag 
04:35AM EDT


 

Airport Tracker/Info


-or-


 

Live Flight TrackerFlight Track Log ✈ N23WJ ✈ 19-Jun-2013 ✈ KRYY - KFXE

Flight Track Log - Related Links

Times and Time Zones

All times are in EDT time to prevent confusion due to time zone crossing. See the N23WJ flight status page for this flight to view local times or setup timezone preferences in your user account.

Time Position Orientation Groundspeed Altitude Reporting Facility
EDT Latitude Longitude Course Direction KTS MPH feet Rate Location/Type
08:18AM 34.0167 -84.5333 160° South 166 191 3,000  Level Atlanta TRACON
08:19AM 34.0000 -84.4667 107° East 203 234 4,200 1,020 Climbing Atlanta TRACON
08:20AM 33.9667 -84.4333 140° Southeast 196 226 5,000 420 Climbing Atlanta TRACON
08:21AM 33.9000 -84.4167 168° South 237 273 5,000  Level Atlanta TRACON
08:22AM 33.8333 -84.4000 168° South 245 282 5,000  Level Atlanta TRACON
08:22AM 33.7833 -84.4000 180° South 244 281 5,000  Level Atlanta TRACON
08:23AM 33.6330 -84.3621 160° South  Level Estimated
08:23AM 33.7000 -84.4000 180° South 238 274 5,000  Level Atlanta TRACON
08:24AM 33.6500 -84.4000 180° South 238 274 5,000 300 Level Atlanta TRACON
08:25AM 33.5833 -84.3833 168° South 237 273 5,600 480 Climbing Atlanta TRACON
08:26AM 33.5167 -84.3833 180° South 234 269 6,000 180 Climbing Atlanta TRACON
08:27AM 33.4667 -84.3833 180° South 249 287 6,000  Level Atlanta TRACON
08:28AM 33.4000 -84.3333 148° Southeast 265 305 6,000 360 Level Atlanta TRACON
08:29AM 33.3619 -84.2900 136° Southeast 247 284 6,700 1,140 Climbing Atlanta Center
08:30AM 33.3161 -84.2500 144° Southeast 239 275 8,100 1,500 Climbing Atlanta Center
08:31AM 33.2661 -84.2078 145° Southeast 223 257 9,700 1,440 Climbing Atlanta Center
08:32AM 33.2181 -84.1556 138° Southeast 223 257 11,000 600 Climbing Atlanta Center
08:33AM 33.1597 -84.1256 157° South 223 257 11,000  Level Atlanta Center
08:34AM 33.0886 -84.0983 162° South 252 290 11,000  Level Atlanta Center
08:35AM 33.0261 -84.0758 163° South 263 303 11,000 240 Level Atlanta Center
08:36AM 32.9594 -84.0536 164° South 263 303 11,500 1,080 Climbing Atlanta Center
08:37AM 32.8989 -84.0339 165° South 246 283 13,200 1,440 Climbing Atlanta Center
08:38AM 32.8383 -84.0192 168° South 233 268 14,400 1,200 Climbing Atlanta Center
08:39AM 32.7778 -83.9969 163° South 227 261 15,700 1,440 Climbing Atlanta Center
08:40AM 32.7192 -83.9747 162° South 222 255 17,300 1,440 Climbing Atlanta Center
08:41AM 32.6628 -83.9525 162° South 222 255 18,600 1,260 Climbing Atlanta Center
08:42AM 32.6044 -83.9278 160° South 222 255 19,900 1,260 Climbing Atlanta Center
08:43AM 32.5481 -83.9058 162° South 222 255 21,200 1,380 Climbing Atlanta Center
08:44AM 32.4958 -83.8861 162° South 222 255 22,700 1,380 Climbing Atlanta Center
08:45AM 32.4458 -83.8689 164° South 209 241 24,000 1,140 Climbing Atlanta Center
08:46AM 32.3894 -83.8494 164° South 203 234 25,000 720 Climbing Atlanta Center
08:47AM 32.3289 -83.8300 165° South 216 249 25,500 600 Climbing Atlanta Center
08:49AM 32.1864 -83.7786 163° South 226 260 27,000 420 Climbing Jacksonville Center
08:50AM 32.1136 -83.7536 164° South 251 289 27,000  Level Jacksonville Center
08:51AM 32.0406 -83.7258 162° South 266 306 27,000  Level Jacksonville Center
08:52AM 31.9678 -83.6983 162° South 271 312 27,000  Level Jacksonville Center
08:53AM 31.8886 -83.6731 165° South 283 326 27,000  Level Jacksonville Center
08:54AM 31.8136 -83.6431 161° South 283 326 27,000  Level Jacksonville Center
08:55AM 31.7406 -83.6156 162° South 283 326 27,000  Level Jacksonville Center
08:56AM 31.6636 -83.5906 165° South 284 327 27,000  Level Jacksonville Center
08:57AM 31.5947 -83.5658 163° South 284 327 27,000  Level Jacksonville Center
08:58AM 31.5197 -83.5408 164° South 279 321 27,000  Level Jacksonville Center
08:59AM 31.4447 -83.5158 164° South 279 321 27,000  Level Jacksonville Center
09:00AM 31.3697 -83.4886 163° South 279 321 27,000  Level Jacksonville Center
09:01AM 31.2947 -83.4614 163° South 279 321 27,000  Level Jacksonville Center
09:02AM 31.2217 -83.4367 164° South 279 321 27,000  Level Jacksonville Center
09:03AM 31.1486 -83.4072 161° South 284 327 27,000  Level Jacksonville Center
09:04AM 31.0714 -83.3825 165° South 284 327 27,000  Level Jacksonville Center
09:05AM 30.9964 -83.3556 163° South 284 327 27,000  Level Jacksonville Center
09:06AM 30.9236 -83.3286 162° South 284 327 27,000  Level Jacksonville Center
09:07AM 30.8464 -83.3039 165° South 284 327 27,000  Level Jacksonville Center
09:08AM 30.7669 -83.2697 160° South 284 327 27,000  Level Jacksonville Center
09:09AM 30.6942 -83.2356 158° South 284 327 27,000  Level Jacksonville Center
09:10AM 30.6189 -83.1992 157° South 289 333 27,000  Level Jacksonville Center
09:11AM 30.5461 -83.1628 157° South 289 333 27,000  Level Jacksonville Center
09:12AM 30.4750 -83.1239 155° Southeast 289 333 27,000  Level Jacksonville Center
09:13AM 30.4019 -83.0900 158° South 289 333 27,000  Level Jacksonville Center
09:14AM 30.3292 -83.0539 157° South 289 333 27,000  Level Jacksonville Center
09:15AM 30.2561 -83.0175 157° South 289 333 27,000  Level Jacksonville Center
09:16AM 30.1831 -82.9814 157° South 289 333 27,000  Level Jacksonville Center
09:17AM 30.1119 -82.9478 158° South 289 333 27,000  Level Jacksonville Center
09:18AM 30.0389 -82.9094 156° South 289 333 27,000  Level Jacksonville Center
09:19AM 29.9681 -82.8781 159° South 289 333 27,000  Level Jacksonville Center
09:20AM 29.8950 -82.8400 156° South 289 333 27,000  Level Jacksonville Center
09:21AM 29.8239 -82.8064 158° South 289 333 27,000  Level Jacksonville Center
09:22AM 29.7528 -82.7706 156° South 284 327 27,000  Level Jacksonville Center
09:23AM 29.6797 -82.7347 157° South 284 327 27,000  Level Jacksonville Center
09:24AM 29.6067 -82.6992 157° South 284 327 27,000  Level Jacksonville Center
09:25AM 29.5356 -82.6633 156° South 279 321 27,000  Level Jacksonville Center
09:26AM 29.4603 -82.6231 155° Southeast 279 321 27,000  Level Jacksonville Center
09:27AM 29.3894 -82.5900 158° South 284 327 27,000  Level Jacksonville Center
09:28AM 29.3308 -82.5592 155° Southeast 284 327 27,000  Level Jacksonville Center
09:29AM 29.2575 -82.5261 159° South 284 327 27,000  Level Jacksonville Center
09:30AM 29.1803 -82.4883 157° South 284 327 27,000  Level Jacksonville Center
09:31AM 29.1092 -82.4528 156° South 279 321 27,000  Level Jacksonville Center
09:32AM 29.0319 -82.4461 176° South 274 315 27,000  Level Jacksonville Center
09:33AM 28.9569 -82.4536 185° South 274 315 27,000  Level Jacksonville Center
09:34AM 28.8797 -82.4586 183° South 274 315 27,000  Level Jacksonville Center
09:35AM 28.8025 -82.4636 183° South 274 315 27,000  Level Jacksonville Center
09:36AM 28.7253 -82.4664 182° South 274 315 27,000  Level Jacksonville Center
09:37AM 28.6417 -82.4761 186° South 274 315 27,000  Level Jacksonville Center
09:38AM 28.5644 -82.4789 182° South 274 315 27,000  Level Jacksonville Center
09:39AM 28.4872 -82.4839 183° South 274 315 27,000  Level Jacksonville Center
09:40AM 28.4122 -82.4867 182° South 274 315 27,000  Level Jacksonville Center
09:43AM 28.2336 -82.4975 183° South 282 325 27,000  Level Miami Center
09:44AM 28.1544 -82.5006 182° South 287 330 27,000  Level Miami Center
09:45AM 28.0789 -82.5083 185° South 287 330 27,000  Level Miami Center
09:46AM 27.9994 -82.5117 182° South 287 330 27,000  Level Miami Center
09:47AM 27.9206 -82.5031 174° South 287 330 27,000  Level Miami Center
09:48AM 27.8553 -82.4644 152° Southeast 276 318 27,000  Level Miami Center
09:49AM 27.7947 -82.4169 145° Southeast 276 318 27,000 -420 Level Miami Center
09:50AM 27.7297 -82.3692 147° Southeast 290 334 26,200 -900 Descending Miami Center
09:51AM 27.6483 -82.3114 148° Southeast 308 354 25,200 -1,140 Descending Miami Center
09:52AM 27.5756 -82.2542 145° Southeast 319 367 24,000 -1,080 Descending Miami Center
09:53AM 27.5003 -82.2014 148° Southeast 324 373 23,100 -540 Descending Miami Center
09:54AM 27.4353 -82.1539 147° Southeast 318 366 23,000 -60 Descending Miami Center
09:55AM 27.3661 -82.1064 149° Southeast 307 353 23,000  Level Miami Center
09:56AM 27.2906 -82.0539 148° Southeast 294 338 23,000  Level Miami Center
09:57AM 27.2236 -82.0042 147° Southeast 288 331 23,000  Level Miami Center
09:58AM 27.1583 -81.9592 148° Southeast 281 323 23,000  Level Miami Center
09:59AM 27.1014 -81.9147 145° Southeast 281 323 23,000  Level Miami Center
10:00AM 27.0342 -81.8700 149° Southeast 281 323 23,000  Level Miami Center
10:01AM 26.9608 -81.8203 149° Southeast 287 330 23,000  Level Miami Center
10:02AM 26.8933 -81.7753 149° Southeast 287 330 23,000 -180 Level Miami Center
10:03AM 26.8283 -81.7239 145° Southeast 287 330 22,700 -780 Descending Miami Center
10:04AM 26.7592 -81.6719 146° Southeast 287 330 21,500 -1,200 Descending Miami Center
10:05AM 26.6878 -81.6203 147° Southeast 292 336 20,300 -1,500 Descending Miami Center
10:06AM 26.6142 -81.5686 148° Southeast 300 345 18,600 -1,500 Descending Miami Center
10:07AM 26.5514 -81.5103 140° Southeast 305 351 17,300 -1,500 Descending Miami Center
10:08AM 26.5033 -81.4458 130° Southeast 299 344 15,600 -1,980 Descending Miami Center
10:09AM 26.4469 -81.3786 133° Southeast 299 344 13,400 -2,160 Descending Miami Center
10:10AM 26.3925 -81.3164 134° Southeast 299 344 11,300 -1,200 Descending Miami Center
10:11AM 26.3422 -81.2564 133° Southeast 281 323 11,000 -180 Descending Miami Center
10:12AM 26.2958 -81.1992 132° Southeast 267 307 11,000 -840 Level Miami Center
10:13AM 26.2475 -81.1372 131° Southeast 261 300 9,400 -2,040 Descending Miami Center
10:14AM 26.1992 -81.0800 133° Southeast 255 293 7,000 -1,740 Descending Miami Center
10:15AM 26.1631 -81.0256 126° Southeast 237 273 6,000 -540 Descending Miami Center
10:16AM 26.1267 -80.9803 132° Southeast 215 247 6,000 -420 Level Miami Center
10:17AM 26.0947 -80.9258 123° Southeast 202 232 5,200 -960 Descending Miami Center
10:18AM 26.1008 -80.8636 84° East 190 219 4,100 -600 Descending Miami Center
10:19AM 26.1064 -80.8083 84° East 178 205 4,000 -60 Descending Miami Center
10:20AM 26.1142 -80.7483 82° East 178 205 4,000  Level Miami Center
10:21AM 26.1261 -80.6911 77° East 184 212 4,000 -180 Level Miami Center
10:22AM 26.1342 -80.6311 81° East 184 212 3,700 -480 Descending Miami Center
10:23AM 26.1447 -80.5411 83° East 194 223 3,000 -420 Descending Miami Center
10:24AM 26.1564 -80.4861 77° East 187 215 2,800 -480 Descending Miami Center
10:25AM 26.1664 -80.4217 80° East 193 222 2,000 -420 Descending Miami Center
10:26AM 26.1742 -80.3594 82° East 192 221 2,000  Level Miami Center
10:27AM 26.1839 -80.3039 79° East 195 224 2,000 -300 Level Miami Center
10:28AM 26.1892 -80.2556 83° East 156 180 1,500 -780 Descending Miami Center
10:29AM 26.1944 -80.2094 83° East 125 144 500 -1,020 Descending Miami Center
10:31AM 26.1833 -80.1667 336° Northwest  Level FlightAware Approximate
10:38AM 26.1973 -80.1707 336° Northwest  Level Estimated